This site, now in its 22nd season, is a labour of love and fun from one of Ottawa's most avid time trialists and number crunchers. It adheres to and is permitted by the laws of Canada, promotes the objectives of every bicycle club whose results are shown, and is donated free of charge by myself for your enjoyment and usage. If you would like results from series you ride in to be shown here, give me (celia@drmath.ca) a shout!
NOTE that this site had to be quickly moved to a new server with a new version of Perl. Unfortunately the way of interacting with the web form has changed, so I'll have to do some reprogramming to get the buttons and search boxes working. Meanwhile the links work fine and you can always add query specifications into the URL! :-)


Index Page
ATT OTT WTT AATT CFCTT VVVTT
Help resultformat:
Case-sensitive

OBC Open TT Series - 2019-Jun-27 - 15km (Rockliffe Pkwy) (EvtFactor = 0.9473)

Ottawa Weather (18:00): Partly Cloudy. Temperature: 28.5C, Wind: SW 17km/h, Humidex: 33, Relative humidity: 45%, Dew point: 16C, Pressure: 101.8kPa, Visibility: 24km.
Ottawa Weather (19:00): Mostly Cloudy. Temperature: 26.5C, Wind: SSE 14km/h, Humidex: 32, Relative humidity: 58%, Dew point: 18C, Pressure: 101.8kPa, Visibility: 24km.
Ottawa Weather (20:00): Mostly Cloudy. Temperature: 24.6C, Wind: SSE 9km/h, Humidex: 30, Relative humidity: 66%, Dew point: 18C, Pressure: 101.8kPa, Visibility: 24km.

Thanks go to Kerstin Marsh for taking photos at the start and finish line. Thanks as well to volunteers who ran the time trial.


waiting for the official results.

 
 

BESTS?
 
1 Fillion, Aaron  OBC 18:44 48.043 1/50 VBM 1/10 0.9841
2 Sherboneau, Mark RWR 19:00 47.368 2/50 VBM 2/10 1.0562
3 Boileau, Greg NTF 19:07 47.079 3/50 VBM 3/10 1.0860
4 Diaz, Rodrigo  OBC/EUR 19:55 45.188 4/50 VBM 4/10 1.0407
5 Guillenette, Jacques RWR 20:10 44.628 5/50 VAM 1/5 1.1893
6 Amiot-Savard, Raphael OBC 20:26 44.046 6/50 SEM 1/3 1.1090
7 Pérès, Erwan IND 20:40 43.548 7/50 VCM 1/11  
8 Manners, Mark WQW 21:00 42.857 8/50 VAM 2/5 0.9303
9 Leavitt, Jeff OBC 21:12 42.453 9/50 VAM 3/5  
10 Brodeur, Martin OBC 21:18 42.254 10/50 VBM 5/10 0.8593
11 Schuck, Peter  OBC/RWR 21:19 42.220 11/50 VDM 1/8  
Y 12 Boisvenue, Linda OBC 21:22 42.122 12/50 VBF 1/2 1.1115
Martins, Alex 613 21:22 42.122 12/50 VBM 6/10  
14 Graveline, Marc OBC 21:26 41.991 14/50 VCM 2/11 1.0212
15 Burge, Craig  CYC 21:29 41.893 15/50 VCM 3/11 0.9769
16 Vice, Nathaniel OBC 21:34 41.731 16/50 VAM 4/5  
17 Campbell, Colin  OBC 22:01 40.878 17/50 VCM 4/11 1.0229
Till, Michael WQW 22:01 40.878 17/50 VCM 4/11 0.9977
19 Burge, Larry  OBC 22:02 40.847 19/50 VCM 6/11 1.1424
20 Almeralla, Sergio WQW 22:16 40.419 20/50 VBM 7/10 1.0249
21 Boileau, Caroline NTF 22:17 40.389 21/50 VAF 1/1 1.1654
22 Mullington, Chris WQW 22:39 39.735 22/50 VDM 2/8 0.8773
Redshaw, Russ  OBC 22:39 39.735 22/50 VDM 2/8 1.0494
24 Christie, Greg  OBC/RWR 22:46 39.531 24/50 VDM 4/8  
25 Wright, David EUR 22:51 39.387 25/50 VCM 7/11  
26 Rivoche, Michael OBC 22:56 39.244 26/50 VDM 5/8 1.0737
27 Fournier, James OBC 23:12 38.793 27/50 VBM 8/10 0.9346
28 Morvan, Jacques  OBC 23:22 38.516 28/50 VEM 1/5 1.0064
29 Davis, Doug OBC 23:27 38.380 29/50 VCM 8/11 1.0455
30 Drouin, Marcel OBC 23:41 38.001 30/50 VCM 9/11  
Manjikian, Sevak OBC 23:41 38.001 30/50 VBM 9/10 1.0913
32 Miller, Paul RWR 24:01 37.474 32/50 VDM 6/8 1.0790
33 Tkalec, Heather  EUR 24:02 37.448 33/50 VBF 2/2 1.0551
34 Boulanger, Gaetan  IND 24:12 37.190 34/50 VEM 2/5  
Schmidt, Nicholas OBC 24:12 37.190 34/50 SEM 2/3  
36 Dorego, Jean-Louis OBC 24:14 37.139 36/50 VDM 7/8 1.0041
37 Deschamps, Martin WQW 24:19 37.012 37/50 VBM 10/10 1.0439
38 Arsenault, Ariane OBC 24:20 36.986 38/50 CAF 1/1 0.8592
Véronneau, Marc OBC 24:20 36.986 38/50 VCM 10/11  
40 Kuronuma, Yuhji OBC 25:02 35.952 40/50 VAM 5/5 1.2088
41 Harvey Ridout, Fraser OBC 25:05 35.880 41/50 SEM 3/3  
42 Balint, John OBC 25:06 35.857 42/50 VEM 3/5 1.0020
43 Moerman, Bram  OBC 25:21 35.503 43/50 VEM 4/5 1.0099
44 Hauschildt, Gunter OBC 25:27 35.363 44/50 VCM 11/11 0.9067
45 Imbrogno, Giorgio  OBC 25:46 34.929 45/50 VEM 5/5 1.0534
46 Levi, Cheryl OBC 25:57 34.682 46/50 VCF 1/1 1.0609
47 Burdett, Avery  OBC 26:06 34.483 47/50 VFM 1/1 0.9326
48 McInnis, Celia  OBC 27:28 32.767 48/50 VDF 1/2 0.9605
49 Monette, Gary WQW 28:40 31.395 49/50 VDM 8/8 0.9948
50 Drapeau, Blanche OBC 28:47 31.268 50/50 VDF 2/2 0.8833
 
Average Speed of all of the above 50 finishes (750km in 19:14:20):38.984
>>>Average of the Average Speeds for these 50 finishes39.356<<<
 

The number of data records shown above is 50
The server processing of your query took: 1 wallclock secs ( 0.05 usr + 0.00 sys = 0.05 CPU)

Thanks to our Helpers: Mark Manners, Alex McKnight, Jess Raymond, Peter Shand, Peter Tregunno

     


Apr 19 (Good Friday)
May 2 May 7 (10km) May 9 May 14 (10km) May 16 May 21 (10km) May 23 May 28 May 28 (10km) May 30
Jun 2 (40km) Jun 4 Jun 4 Jun 6 Jun 11 Jun 11 Jun 13 Jun 18 Jun 18 Jun 20 Jun 25 Jun 25
  Jun 27  
Jun 30 (40km)
Jul 2 Jul 2 Jul 4 Jul 9 Jul 9 Jul 11 (cancelled - lightning) Jul 16 Jul 16 Jul 18 Jul 23 Jul 23 Jul 25 Jul 28 (40km) Jul 30 Jul 30
Aug 1 Aug 6 Aug 6 Aug 8 Aug 13 Aug 13 Aug 15 Aug 20 Aug 20 Aug 22 Aug 25 (40km) Aug 27 Aug 27 (Invitational) Aug 29
Sep 3 Sep 5#1 (Eddy Merckx) Sep 5#2 (With Aero) Sep 8 (40km) Sep 12 Sep 17

WTT Rankings for All Participants
5 Best Speeds     5 Best Speeds by category
OTT Best Three 15km Rankings
Overall     by category     age-Hcap Female   age-Hcap Male
Other years
TT Calculator All TT People All TT events
ABC Home VVV Home
CKAP GOLD MEDAL
Other Links

Note: OTT data from 2003 through 2006-Apr-14 and 2007-Apr-06-? and WTT from 2008-? is taken from the official OBC site.

Please send your comments and suggestions to: Celia McInnis
Copyright © 1998-2013 Celia McInnis. All rights reserved. Links are welcomed.